EDT,Max TemperatureF,Mean TemperatureF,Min TemperatureF,Max Dew PointF,MeanDew PointF,Min DewpointF,Max Humidity, Mean Humidity, Min Humidity, Max Sea Level PressureIn, Mean Sea Level PressureIn, Min Sea Level PressureIn, Max VisibilityMiles, Mean VisibilityMiles, Min VisibilityMiles, Max Wind SpeedMPH, Mean Wind SpeedMPH, Max Gust SpeedMPH,PrecipitationIn, CloudCover, Events, WindDirDegrees
2012-9-1,97,82,74,75,73,71,92,77,53,30.10,30.07,30.01,10,10,7,13,3,,0.00,2,Rain,288
2012-9-2,97,83,73,75,72,70,94,81,47,30.04,30.01,29.94,10,8,1,16,1,23,0.24,2,Rain,122
2012-9-3,97,80,72,75,72,70,92,80,60,30.07,30.02,29.98,10,8,0,9,3,,0.00,4,Fog-Rain,122
2012-9-4,97,80,72,73,72,70,94,77,56,30.05,29.99,29.93,10,8,2,9,3,,0.00,3,,187
2012-9-5,97,80,71,73,71,69,92,76,56,29.96,29.92,29.85,10,10,7,12,5,21,0.00,3,,206
2012-9-6,97,82,72,74,71,68,93,80,48,29.94,29.91,29.87,10,9,3,18,6,28,0.00,4,Rain,219
2012-9-7,97,78,71,72,70,68,93,81,61,29.98,29.93,29.87,10,8,2,6,2,,0.00,6,,22
2012-9-8,97,78,67,73,72,65,93,80,55,29.87,29.79,29.70,10,7,1,16,4,23,0.69,5,Rain,207
2012-9-9,97,70,60,66,61,55,94,77,45,29.96,29.87,29.81,10,10,5,12,5,16,0.03,4,Rain,345
2012-9-10,97,66,55,60,54,49,95,71,36,30.17,30.06,29.96,10,9,1,12,2,18,0.00,0,,339
2012-9-11,97,64,51,61,53,49,95,73,39,30.31,30.26,30.17,10,8,0,9,1,,0.00,1,Fog,36
2012-9-12,97,64,49,63,54,49,96,74,39,30.37,30.32,30.29,10,8,0,9,2,,0.00,0,Fog,50
2012-9-13,81,65,49,67,59,49,96,80,53,30.36,30.30,30.24,10,8,0,9,2,,0.00,1,Fog,38
2012-9-14,84,73,62,68,64,61,95,78,50,30.26,30.20,30.14,10,9,0,8,1,,0.00,4,Fog,68
2012-9-15,84,68,58,68,61,56,96,80,57,30.18,30.14,30.12,10,7,0,10,2,,0.00,5,Fog,18
2012-9-16,84,60,53,62,58,52,95,89,69,30.19,30.14,30.10,10,8,0,6,1,,0.01,6,Fog-Rain,326
2012-9-17,84,71,61,69,65,60,95,84,61,30.13,30.06,29.99,10,8,2,9,1,17,0.23,7,Rain,136
2012-9-18,84,76,70,72,70,68,93,89,71,29.98,29.84,29.75,10,9,5,16,5,20,0.19,6,Rain,161
2012-9-19,84,66,60,70,59,53,93,77,60,30.14,30.01,29.82,10,10,7,22,5,30,0.00,8,,13
2012-9-20,84,65,54,62,55,52,95,77,44,30.17,30.11,30.07,10,10,2,8,2,,0.00,0,,5
2012-9-21,84,66,52,64,58,52,96,78,43,30.10,30.06,30.01,10,6,0,6,1,,0.00,2,Fog,218
2012-9-22,85,71,57,68,63,56,95,75,49,30.02,29.97,29.90,10,9,3,12,5,18,0.00,1,,201
2012-9-23,85,64,52,65,55,48,93,68,37,30.14,30.06,29.95,10,10,7,12,4,,0.00,2,,343
2012-9-24,85,60,46,54,48,41,95,72,31,30.23,30.18,30.13,10,9,0,8,2,,0.00,1,Fog,13
2012-9-25,85,60,44,60,49,43,95,71,33,30.26,30.22,30.17,10,8,0,7,1,,0.00,1,Fog,187
2012-9-26,85,68,52,65,57,51,95,76,42,30.23,30.19,30.15,10,8,0,7,1,,0.00,0,Fog,226
2012-9-27,85,70,55,65,60,54,96,75,40,30.21,30.15,30.09,10,7,0,8,1,,0.00,1,Fog,165
2012-9-28,85,71,57,70,63,56,96,77,44,30.11,30.05,29.98,10,7,0,9,2,,0.01,2,Fog-Rain,224
2012-9-29,85,62,58,66,61,56,95,92,89,30.02,29.97,29.92,10,5,0,8,2,,0.44,7,Fog-Rain,24
2012-9-30,72,64,55,61,57,54,94,81,53,29.93,29.90,29.86,10,8,1,5,1,,0.00,4,,323